sensor_id;sensor_type;location;lat;lon;timestamp;P1;durP1;ratioP1;P2;durP2;ratioP2
80111;SDS011;69421;51.062;3.728;2024-01-10T00:01:49;6.57;;;4.97;;
80111;SDS011;69421;51.062;3.728;2024-01-10T00:04:15;8.52;;;3.83;;
80111;SDS011;69421;51.062;3.728;2024-01-10T00:06:41;6.43;;;3.50;;
80111;SDS011;69421;51.062;3.728;2024-01-10T00:09:07;11.73;;;5.55;;
80111;SDS011;69421;51.062;3.728;2024-01-10T00:11:33;7.45;;;5.47;;
80111;SDS011;69421;51.062;3.728;2024-01-10T00:13:58;6.53;;;4.55;;
80111;SDS011;69421;51.062;3.728;2024-01-10T00:16:27;5.85;;;4.00;;
80111;SDS011;69421;51.062;3.728;2024-01-10T00:18:52;9.10;;;5.32;;
80111;SDS011;69421;51.062;3.728;2024-01-10T00:21:18;7.60;;;5.32;;
80111;SDS011;69421;51.062;3.728;2024-01-10T00:23:43;8.30;;;4.43;;
80111;SDS011;69421;51.062;3.728;2024-01-10T00:26:09;7.47;;;4.80;;
80111;SDS011;69421;51.062;3.728;2024-01-10T00:28:34;7.68;;;4.38;;
80111;SDS011;69421;51.062;3.728;2024-01-10T00:30:59;8.55;;;4.40;;
80111;SDS011;69421;51.062;3.728;2024-01-10T00:33:25;8.43;;;5.07;;
80111;SDS011;69421;51.062;3.728;2024-01-10T00:35:50;8.67;;;4.47;;
80111;SDS011;69421;51.062;3.728;2024-01-10T00:38:16;9.70;;;4.70;;
80111;SDS011;69421;51.062;3.728;2024-01-10T00:40:41;7.43;;;4.43;;
80111;SDS011;69421;51.062;3.728;2024-01-10T00:43:07;10.02;;;5.28;;
80111;SDS011;69421;51.062;3.728;2024-01-10T00:45:32;7.23;;;3.97;;
80111;SDS011;69421;51.062;3.728;2024-01-10T00:47:58;5.80;;;4.47;;
80111;SDS011;69421;51.062;3.728;2024-01-10T00:50:24;8.27;;;4.35;;
80111;SDS011;69421;51.062;3.728;2024-01-10T00:52:49;7.73;;;3.80;;
80111;SDS011;69421;51.062;3.728;2024-01-10T00:55:15;8.23;;;5.43;;
80111;SDS011;69421;51.062;3.728;2024-01-10T00:57:40;7.57;;;4.28;;
80111;SDS011;69421;51.062;3.728;2024-01-10T01:00:06;8.27;;;4.03;;
80111;SDS011;69421;51.062;3.728;2024-01-10T01:02:32;5.68;;;3.97;;
80111;SDS011;69421;51.062;3.728;2024-01-10T01:04:57;7.70;;;4.00;;
80111;SDS011;69421;51.062;3.728;2024-01-10T01:07:23;6.70;;;3.53;;
80111;SDS011;69421;51.062;3.728;2024-01-10T01:09:48;6.68;;;4.00;;
80111;SDS011;69421;51.062;3.728;2024-01-10T01:12:17;7.13;;;4.13;;
80111;SDS011;69421;51.062;3.728;2024-01-10T01:14:42;8.45;;;4.45;;
80111;SDS011;69421;51.062;3.728;2024-01-10T01:17:08;9.48;;;4.38;;
80111;SDS011;69421;51.062;3.728;2024-01-10T01:19:33;8.85;;;4.72;;
80111;SDS011;69421;51.062;3.728;2024-01-10T01:21:59;8.87;;;4.33;;
80111;SDS011;69421;51.062;3.728;2024-01-10T01:24:24;12.00;;;5.03;;
80111;SDS011;69421;51.062;3.728;2024-01-10T01:26:49;7.57;;;4.20;;
80111;SDS011;69421;51.062;3.728;2024-01-10T01:29:15;6.33;;;4.17;;
80111;SDS011;69421;51.062;3.728;2024-01-10T01:31:41;8.60;;;4.65;;
80111;SDS011;69421;51.062;3.728;2024-01-10T01:34:06;7.93;;;5.17;;
80111;SDS011;69421;51.062;3.728;2024-01-10T01:36:32;8.07;;;4.60;;
80111;SDS011;69421;51.062;3.728;2024-01-10T01:38:57;7.55;;;4.25;;
80111;SDS011;69421;51.062;3.728;2024-01-10T01:41:22;8.77;;;4.43;;
80111;SDS011;69421;51.062;3.728;2024-01-10T01:43:48;5.77;;;3.90;;
80111;SDS011;69421;51.062;3.728;2024-01-10T01:46:13;5.77;;;3.20;;
80111;SDS011;69421;51.062;3.728;2024-01-10T01:48:39;4.78;;;3.75;;
80111;SDS011;69421;51.062;3.728;2024-01-10T01:51:05;5.65;;;3.20;;
80111;SDS011;69421;51.062;3.728;2024-01-10T01:53:33;4.50;;;3.13;;
80111;SDS011;69421;51.062;3.728;2024-01-10T01:56:00;5.93;;;3.97;;
80111;SDS011;69421;51.062;3.728;2024-01-10T01:58:28;10.07;;;4.43;;
80111;SDS011;69421;51.062;3.728;2024-01-10T02:00:54;7.03;;;4.28;;
80111;SDS011;69421;51.062;3.728;2024-01-10T02:03:20;7.50;;;4.13;;
80111;SDS011;69421;51.062;3.728;2024-01-10T02:05:46;5.65;;;4.15;;
80111;SDS011;69421;51.062;3.728;2024-01-10T02:08:13;10.27;;;4.57;;
80111;SDS011;69421;51.062;3.728;2024-01-10T02:10:39;6.43;;;3.55;;
80111;SDS011;69421;51.062;3.728;2024-01-10T02:13:05;6.90;;;4.03;;
80111;SDS011;69421;51.062;3.728;2024-01-10T02:15:30;7.43;;;4.03;;
80111;SDS011;69421;51.062;3.728;2024-01-10T02:17:56;7.43;;;5.93;;
80111;SDS011;69421;51.062;3.728;2024-01-10T02:20:22;8.05;;;4.07;;
80111;SDS011;69421;51.062;3.728;2024-01-10T02:22:47;7.68;;;3.70;;
80111;SDS011;69421;51.062;3.728;2024-01-10T02:25:15;7.70;;;3.65;;
80111;SDS011;69421;51.062;3.728;2024-01-10T02:27:40;6.57;;;5.60;;
80111;SDS011;69421;51.062;3.728;2024-01-10T02:30:06;6.57;;;3.38;;
80111;SDS011;69421;51.062;3.728;2024-01-10T02:32:33;6.60;;;3.85;;
80111;SDS011;69421;51.062;3.728;2024-01-10T02:34:59;6.78;;;3.40;;
80111;SDS011;69421;51.062;3.728;2024-01-10T02:37:24;11.07;;;4.57;;
80111;SDS011;69421;51.062;3.728;2024-01-10T02:39:50;8.38;;;5.00;;
80111;SDS011;69421;51.062;3.728;2024-01-10T02:42:15;8.38;;;3.47;;
80111;SDS011;69421;51.062;3.728;2024-01-10T02:44:41;7.75;;;3.95;;
80111;SDS011;69421;51.062;3.728;2024-01-10T02:47:06;6.87;;;4.03;;
80111;SDS011;69421;51.062;3.728;2024-01-10T02:49:32;5.07;;;2.53;;
80111;SDS011;69421;51.062;3.728;2024-01-10T02:51:58;7.70;;;3.72;;
80111;SDS011;69421;51.062;3.728;2024-01-10T02:54:23;6.25;;;3.85;;
80111;SDS011;69421;51.062;3.728;2024-01-10T02:56:49;4.67;;;3.27;;
80111;SDS011;69421;51.062;3.728;2024-01-10T02:59:14;4.90;;;3.70;;
80111;SDS011;69421;51.062;3.728;2024-01-10T03:01:40;5.27;;;3.27;;
80111;SDS011;69421;51.062;3.728;2024-01-10T03:04:05;6.97;;;3.77;;
80111;SDS011;69421;51.062;3.728;2024-01-10T03:06:30;6.33;;;4.00;;
80111;SDS011;69421;51.062;3.728;2024-01-10T03:08:56;7.00;;;3.20;;
80111;SDS011;69421;51.062;3.728;2024-01-10T03:11:21;4.30;;;2.67;;
80111;SDS011;69421;51.062;3.728;2024-01-10T03:13:47;5.85;;;3.28;;
80111;SDS011;69421;51.062;3.728;2024-01-10T03:16:13;5.97;;;3.83;;
80111;SDS011;69421;51.062;3.728;2024-01-10T03:18:39;6.68;;;3.67;;
80111;SDS011;69421;51.062;3.728;2024-01-10T03:21:04;6.35;;;4.93;;
80111;SDS011;69421;51.062;3.728;2024-01-10T03:23:30;7.15;;;3.65;;
80111;SDS011;69421;51.062;3.728;2024-01-10T03:25:56;6.53;;;4.05;;
80111;SDS011;69421;51.062;3.728;2024-01-10T03:28:22;5.72;;;3.08;;
80111;SDS011;69421;51.062;3.728;2024-01-10T03:30:48;4.78;;;3.33;;
80111;SDS011;69421;51.062;3.728;2024-01-10T03:33:14;5.22;;;3.08;;
80111;SDS011;69421;51.062;3.728;2024-01-10T03:35:40;7.03;;;3.85;;
80111;SDS011;69421;51.062;3.728;2024-01-10T03:38:06;7.85;;;4.03;;
80111;SDS011;69421;51.062;3.728;2024-01-10T03:40:31;6.13;;;4.55;;
80111;SDS011;69421;51.062;3.728;2024-01-10T03:42:57;8.17;;;4.37;;
80111;SDS011;69421;51.062;3.728;2024-01-10T03:45:23;9.00;;;3.85;;
80111;SDS011;69421;51.062;3.728;2024-01-10T03:47:49;5.90;;;3.33;;
80111;SDS011;69421;51.062;3.728;2024-01-10T03:50:18;8.25;;;3.47;;
80111;SDS011;69421;51.062;3.728;2024-01-10T03:52:44;6.15;;;2.90;;
80111;SDS011;69421;51.062;3.728;2024-01-10T03:55:12;6.95;;;4.15;;
80111;SDS011;69421;51.062;3.728;2024-01-10T03:57:38;4.82;;;2.75;;
80111;SDS011;69421;51.062;3.728;2024-01-10T04:00:07;8.90;;;3.45;;
80111;SDS011;69421;51.062;3.728;2024-01-10T04:02:33;4.70;;;3.05;;
80111;SDS011;69421;51.062;3.728;2024-01-10T04:04:58;5.80;;;3.60;;
80111;SDS011;69421;51.062;3.728;2024-01-10T04:07:25;4.17;;;3.07;;
80111;SDS011;69421;51.062;3.728;2024-01-10T04:09:51;11.68;;;4.07;;
80111;SDS011;69421;51.062;3.728;2024-01-10T04:12:17;6.83;;;3.00;;
80111;SDS011;69421;51.062;3.728;2024-01-10T04:14:42;5.57;;;3.50;;
80111;SDS011;69421;51.062;3.728;2024-01-10T04:17:07;5.10;;;2.87;;
80111;SDS011;69421;51.062;3.728;2024-01-10T04:19:34;3.67;;;2.65;;
80111;SDS011;69421;51.062;3.728;2024-01-10T04:21:59;5.57;;;3.17;;
80111;SDS011;69421;51.062;3.728;2024-01-10T04:24:25;6.00;;;5.03;;
80111;SDS011;69421;51.062;3.728;2024-01-10T04:26:50;6.90;;;3.80;;
80111;SDS011;69421;51.062;3.728;2024-01-10T04:29:16;4.03;;;3.03;;
80111;SDS011;69421;51.062;3.728;2024-01-10T04:31:41;4.47;;;2.97;;
80111;SDS011;69421;51.062;3.728;2024-01-10T04:34:07;6.45;;;4.90;;
80111;SDS011;69421;51.062;3.728;2024-01-10T04:36:32;5.47;;;3.80;;
80111;SDS011;69421;51.062;3.728;2024-01-10T04:38:58;6.70;;;3.40;;
80111;SDS011;69421;51.062;3.728;2024-01-10T04:41:23;4.47;;;3.10;;
80111;SDS011;69421;51.062;3.728;2024-01-10T04:43:49;4.80;;;2.42;;
80111;SDS011;69421;51.062;3.728;2024-01-10T04:46:14;6.90;;;3.10;;
80111;SDS011;69421;51.062;3.728;2024-01-10T04:48:40;3.35;;;2.58;;
80111;SDS011;69421;51.062;3.728;2024-01-10T04:51:05;5.83;;;2.93;;
80111;SDS011;69421;51.062;3.728;2024-01-10T04:53:30;5.70;;;3.47;;
80111;SDS011;69421;51.062;3.728;2024-01-10T04:55:56;4.47;;;2.60;;
80111;SDS011;69421;51.062;3.728;2024-01-10T04:58:21;7.63;;;2.88;;
80111;SDS011;69421;51.062;3.728;2024-01-10T05:00:47;5.67;;;3.37;;
80111;SDS011;69421;51.062;3.728;2024-01-10T05:03:12;6.80;;;3.17;;
80111;SDS011;69421;51.062;3.728;2024-01-10T05:05:38;3.57;;;2.77;;
80111;SDS011;69421;51.062;3.728;2024-01-10T05:08:03;5.47;;;3.77;;
80111;SDS011;69421;51.062;3.728;2024-01-10T05:10:29;5.18;;;3.10;;
80111;SDS011;69421;51.062;3.728;2024-01-10T05:12:54;5.83;;;3.00;;
80111;SDS011;69421;51.062;3.728;2024-01-10T05:15:19;5.13;;;3.07;;
80111;SDS011;69421;51.062;3.728;2024-01-10T05:17:45;6.87;;;3.73;;
80111;SDS011;69421;51.062;3.728;2024-01-10T05:20:10;4.73;;;3.13;;
80111;SDS011;69421;51.062;3.728;2024-01-10T05:22:36;6.30;;;3.58;;
80111;SDS011;69421;51.062;3.728;2024-01-10T05:25:01;6.95;;;2.50;;
80111;SDS011;69421;51.062;3.728;2024-01-10T05:27:27;7.03;;;3.95;;
80111;SDS011;69421;51.062;3.728;2024-01-10T05:29:53;5.07;;;2.77;;
80111;SDS011;69421;51.062;3.728;2024-01-10T05:32:18;5.73;;;3.57;;
80111;SDS011;69421;51.062;3.728;2024-01-10T05:34:44;3.03;;;2.33;;
80111;SDS011;69421;51.062;3.728;2024-01-10T05:37:09;4.90;;;3.28;;
80111;SDS011;69421;51.062;3.728;2024-01-10T05:39:35;6.28;;;4.68;;
80111;SDS011;69421;51.062;3.728;2024-01-10T05:42:00;6.70;;;3.47;;
80111;SDS011;69421;51.062;3.728;2024-01-10T05:44:27;4.40;;;2.75;;
80111;SDS011;69421;51.062;3.728;2024-01-10T05:46:53;5.82;;;3.10;;
80111;SDS011;69421;51.062;3.728;2024-01-10T05:49:18;7.67;;;5.80;;
80111;SDS011;69421;51.062;3.728;2024-01-10T05:51:44;6.37;;;3.23;;
80111;SDS011;69421;51.062;3.728;2024-01-10T05:54:09;5.40;;;2.97;;
80111;SDS011;69421;51.062;3.728;2024-01-10T05:56:34;2.80;;;2.43;;
80111;SDS011;69421;51.062;3.728;2024-01-10T05:59:00;7.77;;;3.27;;
80111;SDS011;69421;51.062;3.728;2024-01-10T06:01:26;5.13;;;2.97;;
80111;SDS011;69421;51.062;3.728;2024-01-10T06:03:52;5.60;;;2.88;;
80111;SDS011;69421;51.062;3.728;2024-01-10T06:06:17;5.57;;;3.97;;
80111;SDS011;69421;51.062;3.728;2024-01-10T06:08:42;4.60;;;4.17;;
80111;SDS011;69421;51.062;3.728;2024-01-10T06:11:08;7.93;;;4.03;;
80111;SDS011;69421;51.062;3.728;2024-01-10T06:13:35;7.70;;;5.20;;
80111;SDS011;69421;51.062;3.728;2024-01-10T06:16:02;7.53;;;6.40;;
80111;SDS011;69421;51.062;3.728;2024-01-10T06:18:28;6.30;;;3.45;;
80111;SDS011;69421;51.062;3.728;2024-01-10T06:20:53;6.30;;;3.53;;
80111;SDS011;69421;51.062;3.728;2024-01-10T06:23:19;5.83;;;3.23;;
80111;SDS011;69421;51.062;3.728;2024-01-10T06:25:44;6.63;;;3.87;;
80111;SDS011;69421;51.062;3.728;2024-01-10T06:28:09;7.67;;;4.07;;
80111;SDS011;69421;51.062;3.728;2024-01-10T06:30:35;4.60;;;2.97;;
80111;SDS011;69421;51.062;3.728;2024-01-10T06:33:01;6.57;;;3.67;;
80111;SDS011;69421;51.062;3.728;2024-01-10T06:35:26;5.18;;;3.50;;
80111;SDS011;69421;51.062;3.728;2024-01-10T06:37:52;7.00;;;3.67;;
80111;SDS011;69421;51.062;3.728;2024-01-10T06:40:17;5.47;;;2.88;;
80111;SDS011;69421;51.062;3.728;2024-01-10T06:42:43;8.15;;;4.15;;
80111;SDS011;69421;51.062;3.728;2024-01-10T06:45:08;6.72;;;3.63;;
80111;SDS011;69421;51.062;3.728;2024-01-10T06:47:36;5.20;;;3.35;;
80111;SDS011;69421;51.062;3.728;2024-01-10T06:50:02;7.82;;;3.40;;
80111;SDS011;69421;51.062;3.728;2024-01-10T06:52:30;6.05;;;3.10;;
80111;SDS011;69421;51.062;3.728;2024-01-10T06:54:56;9.02;;;3.55;;
80111;SDS011;69421;51.062;3.728;2024-01-10T06:57:22;2.80;;;2.10;;
80111;SDS011;69421;51.062;3.728;2024-01-10T06:59:47;4.93;;;3.22;;
80111;SDS011;69421;51.062;3.728;2024-01-10T07:02:13;5.70;;;3.53;;
80111;SDS011;69421;51.062;3.728;2024-01-10T07:04:38;6.73;;;3.77;;
80111;SDS011;69421;51.062;3.728;2024-01-10T07:07:04;5.77;;;3.63;;
80111;SDS011;69421;51.062;3.728;2024-01-10T07:09:29;6.57;;;3.57;;
80111;SDS011;69421;51.062;3.728;2024-01-10T07:11:54;4.60;;;3.17;;
80111;SDS011;69421;51.062;3.728;2024-01-10T07:14:20;5.80;;;2.90;;
80111;SDS011;69421;51.062;3.728;2024-01-10T07:16:45;6.97;;;4.82;;
80111;SDS011;69421;51.062;3.728;2024-01-10T07:19:12;6.95;;;3.40;;
80111;SDS011;69421;51.062;3.728;2024-01-10T07:21:39;6.22;;;3.40;;
80111;SDS011;69421;51.062;3.728;2024-01-10T07:24:07;5.30;;;2.65;;
80111;SDS011;69421;51.062;3.728;2024-01-10T07:26:36;5.65;;;2.85;;
80111;SDS011;69421;51.062;3.728;2024-01-10T07:29:02;2.65;;;2.25;;
80111;SDS011;69421;51.062;3.728;2024-01-10T07:31:30;3.33;;;2.63;;
80111;SDS011;69421;51.062;3.728;2024-01-10T07:33:56;11.10;;;4.32;;
80111;SDS011;69421;51.062;3.728;2024-01-10T07:36:25;7.88;;;3.70;;
80111;SDS011;69421;51.062;3.728;2024-01-10T07:38:55;5.43;;;3.72;;
80111;SDS011;69421;51.062;3.728;2024-01-10T07:41:22;4.05;;;3.70;;
80111;SDS011;69421;51.062;3.728;2024-01-10T07:43:48;4.70;;;3.03;;
80111;SDS011;69421;51.062;3.728;2024-01-10T07:46:14;9.40;;;3.28;;
80111;SDS011;69421;51.062;3.728;2024-01-10T07:48:40;3.95;;;2.85;;
80111;SDS011;69421;51.062;3.728;2024-01-10T07:51:05;6.90;;;3.63;;
80111;SDS011;69421;51.062;3.728;2024-01-10T07:53:31;11.30;;;4.03;;
80111;SDS011;69421;51.062;3.728;2024-01-10T07:55:56;7.43;;;3.47;;
80111;SDS011;69421;51.062;3.728;2024-01-10T07:58:22;8.10;;;3.42;;
80111;SDS011;69421;51.062;3.728;2024-01-10T08:00:47;3.95;;;3.42;;
80111;SDS011;69421;51.062;3.728;2024-01-10T08:03:13;8.15;;;3.40;;
80111;SDS011;69421;51.062;3.728;2024-01-10T08:05:38;7.10;;;3.30;;
80111;SDS011;69421;51.062;3.728;2024-01-10T08:08:03;6.20;;;3.80;;
80111;SDS011;69421;51.062;3.728;2024-01-10T08:10:29;5.35;;;4.82;;
80111;SDS011;69421;51.062;3.728;2024-01-10T08:12:54;8.73;;;4.03;;
80111;SDS011;69421;51.062;3.728;2024-01-10T08:15:21;6.60;;;4.00;;
80111;SDS011;69421;51.062;3.728;2024-01-10T08:17:47;5.85;;;3.53;;
80111;SDS011;69421;51.062;3.728;2024-01-10T08:20:12;5.07;;;4.30;;
80111;SDS011;69421;51.062;3.728;2024-01-10T08:22:40;9.05;;;5.15;;
80111;SDS011;69421;51.062;3.728;2024-01-10T08:25:06;7.15;;;4.55;;
80111;SDS011;69421;51.062;3.728;2024-01-10T08:27:32;11.93;;;5.35;;
80111;SDS011;69421;51.062;3.728;2024-01-10T08:29:58;8.18;;;4.82;;
80111;SDS011;69421;51.062;3.728;2024-01-10T08:32:24;5.30;;;4.82;;
80111;SDS011;69421;51.062;3.728;2024-01-10T08:34:49;7.63;;;4.03;;
80111;SDS011;69421;51.062;3.728;2024-01-10T08:37:15;5.35;;;3.33;;
80111;SDS011;69421;51.062;3.728;2024-01-10T08:39:42;7.20;;;3.78;;
80111;SDS011;69421;51.062;3.728;2024-01-10T08:42:09;6.78;;;4.38;;
80111;SDS011;69421;51.062;3.728;2024-01-10T08:44:35;5.90;;;3.88;;
80111;SDS011;69421;51.062;3.728;2024-01-10T08:47:00;6.55;;;3.28;;
80111;SDS011;69421;51.062;3.728;2024-01-10T08:49:26;8.57;;;4.25;;
80111;SDS011;69421;51.062;3.728;2024-01-10T08:51:51;7.15;;;4.18;;
80111;SDS011;69421;51.062;3.728;2024-01-10T08:54:18;5.95;;;3.80;;
80111;SDS011;69421;51.062;3.728;2024-01-10T08:56:45;7.47;;;4.55;;
80111;SDS011;69421;51.062;3.728;2024-01-10T08:59:13;9.60;;;5.95;;
80111;SDS011;69421;51.062;3.728;2024-01-10T09:01:38;6.65;;;4.95;;
80111;SDS011;69421;51.062;3.728;2024-01-10T09:04:04;8.10;;;4.63;;
80111;SDS011;69421;51.062;3.728;2024-01-10T09:06:31;7.20;;;4.45;;
80111;SDS011;69421;51.062;3.728;2024-01-10T09:08:57;8.38;;;5.55;;
80111;SDS011;69421;51.062;3.728;2024-01-10T09:11:22;8.40;;;4.50;;
80111;SDS011;69421;51.062;3.728;2024-01-10T09:13:49;8.85;;;4.78;;
80111;SDS011;69421;51.062;3.728;2024-01-10T09:16:15;8.02;;;4.65;;
80111;SDS011;69421;51.062;3.728;2024-01-10T09:18:41;11.82;;;4.72;;
80111;SDS011;69421;51.062;3.728;2024-01-10T09:21:07;5.43;;;4.20;;
80111;SDS011;69421;51.062;3.728;2024-01-10T09:23:32;9.13;;;4.03;;
80111;SDS011;69421;51.062;3.728;2024-01-10T09:25:57;9.17;;;4.57;;
80111;SDS011;69421;51.062;3.728;2024-01-10T09:28:23;9.87;;;5.40;;
80111;SDS011;69421;51.062;3.728;2024-01-10T09:30:48;8.77;;;3.87;;
80111;SDS011;69421;51.062;3.728;2024-01-10T09:33:14;5.97;;;4.70;;
80111;SDS011;69421;51.062;3.728;2024-01-10T09:35:39;6.55;;;4.53;;
80111;SDS011;69421;51.062;3.728;2024-01-10T09:38:05;11.00;;;5.03;;
80111;SDS011;69421;51.062;3.728;2024-01-10T09:40:30;8.30;;;4.63;;
80111;SDS011;69421;51.062;3.728;2024-01-10T09:42:56;7.95;;;5.70;;
80111;SDS011;69421;51.062;3.728;2024-01-10T09:45:22;7.80;;;4.53;;
80111;SDS011;69421;51.062;3.728;2024-01-10T09:47:49;7.68;;;6.10;;
80111;SDS011;69421;51.062;3.728;2024-01-10T09:50:17;7.60;;;5.05;;
80111;SDS011;69421;51.062;3.728;2024-01-10T09:53:04;8.15;;;4.82;;
80111;SDS011;69421;51.062;3.728;2024-01-10T09:55:34;8.82;;;4.53;;
80111;SDS011;69421;51.062;3.728;2024-01-10T09:58:01;8.10;;;5.15;;
80111;SDS011;69421;51.062;3.728;2024-01-10T10:00:29;9.77;;;5.70;;
80111;SDS011;69421;51.062;3.728;2024-01-10T10:02:55;8.90;;;5.07;;
80111;SDS011;69421;51.062;3.728;2024-01-10T10:05:22;9.35;;;4.75;;
80111;SDS011;69421;51.062;3.728;2024-01-10T10:07:49;7.93;;;4.88;;
80111;SDS011;69421;51.062;3.728;2024-01-10T10:10:16;8.35;;;4.65;;
80111;SDS011;69421;51.062;3.728;2024-01-10T10:12:45;9.38;;;4.93;;
80111;SDS011;69421;51.062;3.728;2024-01-10T10:15:15;7.70;;;4.93;;
80111;SDS011;69421;51.062;3.728;2024-01-10T10:17:43;7.95;;;4.57;;
80111;SDS011;69421;51.062;3.728;2024-01-10T10:20:13;7.53;;;5.10;;
80111;SDS011;69421;51.062;3.728;2024-01-10T10:25:34;9.75;;;7.03;;
80111;SDS011;69421;51.062;3.728;2024-01-10T10:28:00;6.57;;;4.53;;
80111;SDS011;69421;51.062;3.728;2024-01-10T10:30:27;6.70;;;4.85;;
80111;SDS011;69421;51.062;3.728;2024-01-10T10:32:53;13.75;;;5.78;;
80111;SDS011;69421;51.062;3.728;2024-01-10T10:35:20;8.73;;;5.25;;
80111;SDS011;69421;51.062;3.728;2024-01-10T10:37:46;8.63;;;4.78;;
80111;SDS011;69421;51.062;3.728;2024-01-10T10:40:16;11.02;;;5.43;;
80111;SDS011;69421;51.062;3.728;2024-01-10T10:42:45;6.47;;;4.32;;
80111;SDS011;69421;51.062;3.728;2024-01-10T10:45:15;11.55;;;4.72;;
80111;SDS011;69421;51.062;3.728;2024-01-10T10:47:45;9.30;;;5.55;;
80111;SDS011;69421;51.062;3.728;2024-01-10T10:50:19;8.93;;;5.50;;
80111;SDS011;69421;51.062;3.728;2024-01-10T10:52:46;8.57;;;5.35;;
80111;SDS011;69421;51.062;3.728;2024-01-10T10:55:16;8.07;;;4.75;;
80111;SDS011;69421;51.062;3.728;2024-01-10T10:57:47;12.38;;;5.95;;
80111;SDS011;69421;51.062;3.728;2024-01-10T11:00:15;11.80;;;5.65;;
80111;SDS011;69421;51.062;3.728;2024-01-10T11:02:42;11.13;;;6.30;;
80111;SDS011;69421;51.062;3.728;2024-01-10T11:05:09;9.60;;;6.43;;
80111;SDS011;69421;51.062;3.728;2024-01-10T11:07:41;8.75;;;4.60;;
80111;SDS011;69421;51.062;3.728;2024-01-10T11:10:11;8.07;;;5.07;;
80111;SDS011;69421;51.062;3.728;2024-01-10T11:12:53;7.90;;;5.10;;
80111;SDS011;69421;51.062;3.728;2024-01-10T11:15:43;8.48;;;5.32;;
80111;SDS011;69421;51.062;3.728;2024-01-10T11:23:49;9.02;;;5.28;;
80111;SDS011;69421;51.062;3.728;2024-01-10T11:26:17;9.00;;;5.00;;
80111;SDS011;69421;51.062;3.728;2024-01-10T11:28:44;8.90;;;5.80;;
80111;SDS011;69421;51.062;3.728;2024-01-10T11:31:10;10.02;;;5.90;;
80111;SDS011;69421;51.062;3.728;2024-01-10T11:33:36;9.45;;;5.32;;
80111;SDS011;69421;51.062;3.728;2024-01-10T11:36:15;8.55;;;6.85;;
80111;SDS011;69421;51.062;3.728;2024-01-10T11:41:11;10.25;;;6.15;;
80111;SDS011;69421;51.062;3.728;2024-01-10T11:46:03;8.65;;;5.18;;
80111;SDS011;69421;51.062;3.728;2024-01-10T11:48:31;10.77;;;6.13;;
80111;SDS011;69421;51.062;3.728;2024-01-10T11:50:59;8.98;;;5.68;;
80111;SDS011;69421;51.062;3.728;2024-01-10T11:53:38;10.85;;;6.40;;
80111;SDS011;69421;51.062;3.728;2024-01-10T11:56:14;9.02;;;5.55;;
80111;SDS011;69421;51.062;3.728;2024-01-10T12:01:33;9.25;;;6.07;;
80111;SDS011;69421;51.062;3.728;2024-01-10T12:03:59;12.75;;;5.60;;
80111;SDS011;69421;51.062;3.728;2024-01-10T12:06:25;10.52;;;6.57;;
80111;SDS011;69421;51.062;3.728;2024-01-10T12:08:50;12.13;;;5.72;;
80111;SDS011;69421;51.062;3.728;2024-01-10T12:11:16;8.55;;;6.10;;
80111;SDS011;69421;51.062;3.728;2024-01-10T12:13:42;10.82;;;7.25;;
80111;SDS011;69421;51.062;3.728;2024-01-10T12:16:07;9.68;;;5.90;;
80111;SDS011;69421;51.062;3.728;2024-01-10T12:18:33;8.80;;;6.28;;
80111;SDS011;69421;51.062;3.728;2024-01-10T12:20:59;9.75;;;5.60;;
80111;SDS011;69421;51.062;3.728;2024-01-10T12:23:25;10.40;;;6.78;;
80111;SDS011;69421;51.062;3.728;2024-01-10T12:25:55;10.20;;;6.07;;
80111;SDS011;69421;51.062;3.728;2024-01-10T12:28:21;11.63;;;8.00;;
80111;SDS011;69421;51.062;3.728;2024-01-10T12:30:47;12.05;;;5.75;;
80111;SDS011;69421;51.062;3.728;2024-01-10T12:33:12;12.82;;;6.53;;
80111;SDS011;69421;51.062;3.728;2024-01-10T12:35:38;10.50;;;6.53;;
80111;SDS011;69421;51.062;3.728;2024-01-10T12:38:06;10.23;;;6.13;;
80111;SDS011;69421;51.062;3.728;2024-01-10T12:40:32;10.13;;;6.67;;
80111;SDS011;69421;51.062;3.728;2024-01-10T12:43:04;11.73;;;6.68;;
80111;SDS011;69421;51.062;3.728;2024-01-10T12:45:34;11.20;;;6.45;;
80111;SDS011;69421;51.062;3.728;2024-01-10T12:48:00;10.83;;;5.93;;
80111;SDS011;69421;51.062;3.728;2024-01-10T12:50:26;9.88;;;6.82;;
80111;SDS011;69421;51.062;3.728;2024-01-10T12:52:51;10.17;;;5.30;;
80111;SDS011;69421;51.062;3.728;2024-01-10T12:55:17;10.10;;;5.93;;
80111;SDS011;69421;51.062;3.728;2024-01-10T12:57:43;12.70;;;6.65;;
80111;SDS011;69421;51.062;3.728;2024-01-10T13:00:09;9.77;;;6.38;;
80111;SDS011;69421;51.062;3.728;2024-01-10T13:02:36;10.68;;;5.80;;
80111;SDS011;69421;51.062;3.728;2024-01-10T13:05:05;8.18;;;5.22;;
80111;SDS011;69421;51.062;3.728;2024-01-10T13:07:37;8.40;;;5.65;;
80111;SDS011;69421;51.062;3.728;2024-01-10T13:10:02;12.80;;;5.90;;
80111;SDS011;69421;51.062;3.728;2024-01-10T13:12:28;11.77;;;7.18;;
80111;SDS011;69421;51.062;3.728;2024-01-10T13:14:54;9.15;;;5.13;;
80111;SDS011;69421;51.062;3.728;2024-01-10T13:17:19;9.27;;;6.05;;
80111;SDS011;69421;51.062;3.728;2024-01-10T13:19:46;9.55;;;5.28;;
80111;SDS011;69421;51.062;3.728;2024-01-10T13:22:14;15.10;;;6.15;;
80111;SDS011;69421;51.062;3.728;2024-01-10T13:24:44;12.75;;;6.32;;
80111;SDS011;69421;51.062;3.728;2024-01-10T13:27:12;8.10;;;5.82;;
80111;SDS011;69421;51.062;3.728;2024-01-10T13:29:37;11.73;;;6.85;;
80111;SDS011;69421;51.062;3.728;2024-01-10T13:32:03;11.52;;;6.32;;
80111;SDS011;69421;51.062;3.728;2024-01-10T13:34:30;12.77;;;6.20;;
80111;SDS011;69421;51.062;3.728;2024-01-10T13:36:55;12.18;;;6.95;;
80111;SDS011;69421;51.062;3.728;2024-01-10T13:39:20;10.27;;;6.10;;
80111;SDS011;69421;51.062;3.728;2024-01-10T13:41:46;10.80;;;5.87;;
80111;SDS011;69421;51.062;3.728;2024-01-10T13:44:12;11.02;;;6.57;;
80111;SDS011;69421;51.062;3.728;2024-01-10T13:46:37;10.25;;;6.97;;
80111;SDS011;69421;51.062;3.728;2024-01-10T13:49:03;10.95;;;5.38;;
80111;SDS011;69421;51.062;3.728;2024-01-10T13:51:28;8.35;;;5.60;;
80111;SDS011;69421;51.062;3.728;2024-01-10T13:53:54;11.43;;;6.30;;
80111;SDS011;69421;51.062;3.728;2024-01-10T13:56:19;10.07;;;6.97;;
80111;SDS011;69421;51.062;3.728;2024-01-10T13:58:47;9.73;;;5.78;;
80111;SDS011;69421;51.062;3.728;2024-01-10T14:01:13;13.27;;;6.53;;
80111;SDS011;69421;51.062;3.728;2024-01-10T14:03:39;10.15;;;6.40;;
80111;SDS011;69421;51.062;3.728;2024-01-10T14:06:04;9.85;;;5.70;;
80111;SDS011;69421;51.062;3.728;2024-01-10T14:08:30;9.15;;;5.05;;
80111;SDS011;69421;51.062;3.728;2024-01-10T14:10:56;9.90;;;6.38;;
80111;SDS011;69421;51.062;3.728;2024-01-10T14:13:21;9.57;;;6.43;;
80111;SDS011;69421;51.062;3.728;2024-01-10T14:15:48;11.25;;;6.05;;
80111;SDS011;69421;51.062;3.728;2024-01-10T14:18:13;8.73;;;5.78;;
80111;SDS011;69421;51.062;3.728;2024-01-10T14:20:39;10.97;;;5.93;;
80111;SDS011;69421;51.062;3.728;2024-01-10T14:23:04;11.80;;;6.00;;
80111;SDS011;69421;51.062;3.728;2024-01-10T14:25:31;9.95;;;5.80;;
80111;SDS011;69421;51.062;3.728;2024-01-10T14:27:56;8.30;;;5.68;;
80111;SDS011;69421;51.062;3.728;2024-01-10T14:30:23;11.75;;;5.57;;
80111;SDS011;69421;51.062;3.728;2024-01-10T14:32:50;11.10;;;6.63;;
80111;SDS011;69421;51.062;3.728;2024-01-10T14:35:16;10.20;;;6.68;;
80111;SDS011;69421;51.062;3.728;2024-01-10T14:37:42;10.05;;;6.00;;
80111;SDS011;69421;51.062;3.728;2024-01-10T14:40:07;9.30;;;5.93;;
80111;SDS011;69421;51.062;3.728;2024-01-10T14:42:33;10.05;;;5.38;;
80111;SDS011;69421;51.062;3.728;2024-01-10T14:44:59;10.48;;;5.88;;
80111;SDS011;69421;51.062;3.728;2024-01-10T14:47:25;13.45;;;6.68;;
80111;SDS011;69421;51.062;3.728;2024-01-10T14:49:51;11.13;;;6.07;;
80111;SDS011;69421;51.062;3.728;2024-01-10T14:52:16;12.77;;;6.53;;
80111;SDS011;69421;51.062;3.728;2024-01-10T14:54:42;13.75;;;6.60;;
80111;SDS011;69421;51.062;3.728;2024-01-10T14:57:07;10.85;;;6.45;;